Time;durP1;ratioP1;P1;durP2;ratioP2;P2;SDS_P1;SDS_P2;PMS_P1;PMS_P2;Temp;Humidity;BMP_temperature;BMP_pressure;BME280_temperature;BME280_humidity;BME280_pressure;Samples;Min_cycle;Max_cycle;Signal;HPM_P1;HPM_P2
2024/04/09 00:41:29;;;;;;;0.40;0.20;;;;;;;17.01;89.25;99010.28;1494105;25;20504;-46
2024/04/09 00:43:56;;;;;;;0.83;0.83;;;;;;;16.92;90.83;99003.78;5300130;27;20577;-47
2024/04/09 00:46:22;;;;;;;0.60;0.60;;;;;;;17.17;89.88;99003.63;5292477;27;20478;-45
2024/04/09 00:48:49;;;;;;;0.40;0.20;;;;;;;17.14;89.24;98992.28;5313092;26;20479;-48
2024/04/09 00:51:18;;;;;;;0.40;0.20;;;;;;;17.28;88.71;98994.78;5308465;26;20488;-48
2024/04/09 00:53:49;;;;;;;0.40;0.20;;;;;;;17.36;88.69;98988.78;5313482;21;20571;-47
2024/04/09 00:56:16;;;;;;;0.40;0.20;;;;;;;17.25;88.79;98978.00;5279371;27;20473;-48
2024/04/09 00:58:46;;;;;;;0.40;0.20;;;;;;;17.61;87.30;98969.78;5279059;27;20484;-47
2024/04/09 01:01:16;;;;;;;0.40;0.20;;;;;;;17.43;86.67;98964.03;5279298;27;20476;-47
2024/04/09 01:03:44;;;;;;;0.40;0.30;;;;;;;17.43;86.44;98960.47;5279036;27;20485;-48
2024/04/09 01:06:11;;;;;;;0.40;0.20;;;;;;;17.48;86.31;98953.75;5278604;27;20512;-48
2024/04/09 01:08:38;;;;;;;0.43;0.30;;;;;;;17.51;86.14;98957.19;5279104;27;20558;-47
2024/04/09 01:11:04;;;;;;;0.40;0.20;;;;;;;17.53;85.88;98947.16;5279084;27;20592;-48
2024/04/09 01:13:31;;;;;;;0.40;0.20;;;;;;;17.58;86.27;98967.34;5278783;27;20528;-47
2024/04/09 01:15:57;;;;;;;0.40;0.20;;;;;;;17.51;87.59;98974.16;5279071;27;20477;-47
2024/04/09 01:18:24;;;;;;;0.40;0.20;;;;;;;17.52;88.02;98970.50;5278772;27;20487;-47
2024/04/09 01:20:51;;;;;;;0.40;0.20;;;;;;;17.39;88.56;98975.97;5278939;27;20464;-48
2024/04/09 01:23:18;;;;;;;0.40;0.20;;;;;;;17.25;89.78;98975.31;5278777;27;20529;-48
2024/04/09 01:25:44;;;;;;;0.40;0.20;;;;;;;17.02;90.94;98977.09;5278978;27;20465;-48
2024/04/09 01:28:11;;;;;;;0.40;0.20;;;;;;;17.06;91.64;98992.00;5278582;27;20956;-48
2024/04/09 01:30:38;;;;;;;0.40;0.20;;;;;;;16.88;91.94;98992.44;5278739;27;20484;-47
2024/04/09 01:33:05;;;;;;;0.40;0.20;;;;;;;17.30;89.18;98995.50;5270486;27;20473;-48
2024/04/09 01:35:32;;;;;;;0.40;0.20;;;;;;;17.08;89.67;98984.69;5264937;27;20523;-48
2024/04/09 01:37:58;;;;;;;0.40;0.20;;;;;;;17.55;87.59;98983.72;5278673;27;20585;-48
2024/04/09 01:40:25;;;;;;;0.40;0.20;;;;;;;17.36;87.21;98989.63;5278678;27;20473;-48
2024/04/09 01:42:51;;;;;;;0.40;0.20;;;;;;;17.48;87.73;98995.91;5287654;27;20473;-48
2024/04/09 01:45:18;;;;;;;0.80;0.80;;;;;;;17.46;87.46;99001.41;5291653;26;21012;-48
2024/04/09 01:47:45;;;;;;;0.40;0.20;;;;;;;17.36;86.84;99003.06;5278329;27;20549;-48
2024/04/09 01:50:12;;;;;;;0.40;0.20;;;;;;;17.16;86.54;99010.00;5278587;27;20481;-48
2024/04/09 01:52:40;;;;;;;0.40;0.20;;;;;;;17.44;85.96;99018.63;5278502;27;20481;-49
2024/04/09 01:55:07;;;;;;;0.40;0.20;;;;;;;17.45;85.39;99028.38;5267785;27;20504;-48
2024/04/09 01:57:35;;;;;;;0.40;0.20;;;;;;;17.47;85.04;99013.84;5255947;27;20532;-48
2024/04/09 02:00:11;;;;;;;0.40;0.20;;;;;;;17.39;85.61;99010.88;5255546;27;20844;-49
2024/04/09 02:02:42;;;;;;;0.40;0.20;;;;;;;17.15;86.73;99018.16;5278420;27;21000;-47
2024/04/09 02:05:09;;;;;;;0.40;0.20;;;;;;;17.17;88.47;99018.91;5277842;27;20480;-48
2024/04/09 02:07:35;;;;;;;0.40;0.20;;;;;;;17.37;86.18;99020.91;5278201;27;20529;-48
2024/04/09 02:10:03;;;;;;;0.40;0.20;;;;;;;17.52;83.64;99010.78;5278199;27;20472;-48
2024/04/09 02:12:29;;;;;;;0.40;0.20;;;;;;;17.80;77.73;98998.78;5278446;27;20850;-47
2024/04/09 02:14:56;;;;;;;0.73;0.73;;;;;;;17.98;77.67;99016.16;5278046;27;20601;-48
2024/04/09 02:17:23;;;;;;;0.40;0.20;;;;;;;18.00;79.18;99007.97;5278205;27;20468;-49
2024/04/09 02:19:49;;;;;;;1.17;1.17;;;;;;;18.00;79.89;99010.66;5276566;27;20476;-48
2024/04/09 02:22:16;;;;;;;0.40;0.20;;;;;;;17.91;80.10;99020.28;5278332;27;21038;-48
2024/04/09 02:24:43;;;;;;;0.40;0.20;;;;;;;18.02;80.18;99025.69;5278016;27;20536;-48
2024/04/09 02:27:09;;;;;;;0.40;0.20;;;;;;;18.09;80.11;99033.25;5278257;27;20521;-48
2024/04/09 02:29:36;;;;;;;6.03;4.37;;;;;;;17.96;80.67;99041.47;5271648;27;20490;-48
2024/04/09 02:32:02;;;;;;;0.40;0.20;;;;;;;17.67;83.36;99044.53;5262518;27;20479;-48
2024/04/09 02:34:33;;;;;;;0.87;0.87;;;;;;;17.89;82.10;99061.72;5277852;27;20476;-48
2024/04/09 02:37:07;;;;;;;0.40;0.20;;;;;;;17.92;82.13;99073.09;5278038;27;20997;-48
2024/04/09 02:39:33;;;;;;;0.40;0.20;;;;;;;17.95;82.47;99088.97;5268256;27;20537;-48
2024/04/09 02:42:03;;;;;;;0.40;0.20;;;;;;;17.96;81.75;99096.09;5265596;27;20537;-48
2024/04/09 02:44:30;;;;;;;0.40;0.30;;;;;;;17.86;83.06;99100.47;5277481;27;20544;-48
2024/04/09 02:46:58;;;;;;;0.40;0.20;;;;;;;17.72;84.25;99109.59;5277887;27;20848;-48
2024/04/09 02:49:25;;;;;;;0.40;0.20;;;;;;;17.64;85.08;99106.59;5277747;27;20552;-48
2024/04/09 02:51:51;;;;;;;0.40;0.20;;;;;;;17.99;83.12;99114.66;5277680;27;21077;-48
2024/04/09 02:54:18;;;;;;;0.40;0.20;;;;;;;18.22;79.18;99118.22;5277399;27;20540;-48
2024/04/09 02:56:44;;;;;;;0.40;0.20;;;;;;;18.02;77.09;99111.75;5277505;27;20484;-48
2024/04/09 02:59:11;;;;;;;0.40;0.20;;;;;;;18.12;77.04;99111.88;5254723;27;20538;-48
2024/04/09 03:01:38;;;;;;;0.40;0.20;;;;;;;18.32;75.37;99107.59;5277480;27;21078;-48
2024/04/09 03:04:04;;;;;;;0.40;0.20;;;;;;;18.21;77.43;99110.28;5255870;27;20484;-49
2024/04/09 03:06:31;;;;;;;0.40;0.20;;;;;;;18.11;78.72;99112.84;5277578;27;20464;-49
2024/04/09 03:08:58;;;;;;;0.40;0.20;;;;;;;18.08;79.25;99117.59;5289226;27;20595;-49
2024/04/09 03:11:25;;;;;;;0.47;0.47;;;;;;;17.96;80.85;99116.75;5277859;27;20460;-48
2024/04/09 03:13:52;;;;;;;0.40;0.20;;;;;;;17.82;81.96;99130.38;5275992;27;20488;-49
2024/04/09 03:16:20;;;;;;;0.40;0.20;;;;;;;17.96;81.12;99132.88;5277554;27;20464;-49
2024/04/09 03:18:50;;;;;;;0.40;0.20;;;;;;;17.92;81.69;99139.44;5277287;27;20476;-49
2024/04/09 03:21:17;;;;;;;0.40;0.20;;;;;;;17.94;80.82;99148.25;5277207;27;20480;-49
2024/04/09 03:23:44;;;;;;;0.40;0.20;;;;;;;17.88;81.86;99156.81;5276960;27;20496;-49
2024/04/09 03:26:14;;;;;;;0.40;0.20;;;;;;;17.72;81.79;99184.84;5276983;27;20476;-49
2024/04/09 03:28:41;;;;;;;0.40;0.20;;;;;;;17.75;82.37;99184.63;5277203;27;20536;-48
2024/04/09 03:31:09;;;;;;;0.40;0.20;;;;;;;17.87;83.18;99185.53;5279503;27;21042;-48
2024/04/09 03:33:36;;;;;;;0.40;0.20;;;;;;;17.71;83.88;99193.91;5280162;27;21681;-49
2024/04/09 03:36:10;;;;;;;0.40;0.20;;;;;;;17.61;84.02;99203.59;5280345;27;20476;-48
2024/04/09 03:38:37;;;;;;;1.80;1.70;;;;;;;17.58;84.60;99202.97;5280186;27;20473;-48
2024/04/09 03:41:06;;;;;;;0.40;0.20;;;;;;;17.68;83.29;99193.22;5280374;27;20472;-49
2024/04/09 03:43:33;;;;;;;0.40;0.20;;;;;;;17.77;83.11;99196.09;5280140;27;20532;-49
2024/04/09 03:46:14;;;;;;;0.40;0.20;;;;;;;17.72;82.93;99184.84;5280240;27;20476;-49
2024/04/09 03:48:45;;;;;;;0.40;0.20;;;;;;;17.81;81.42;99179.75;5302080;27;20472;-50
2024/04/09 03:51:14;;;;;;;0.40;0.30;;;;;;;17.94;79.56;99188.59;5280064;27;20480;-48
2024/04/09 03:53:41;;;;;;;0.40;0.20;;;;;;;18.12;77.19;99186.34;5279776;27;20500;-50
2024/04/09 03:56:09;;;;;;;0.40;0.20;;;;;;;18.08;75.48;99187.53;5280316;27;20560;-49
2024/04/09 03:58:40;;;;;;;0.40;0.20;;;;;;;18.00;74.43;99199.75;5279924;27;20566;-49
2024/04/09 04:01:10;;;;;;;0.40;0.20;;;;;;;18.12;73.17;99197.09;5279977;27;20473;-49
2024/04/09 04:03:40;;;;;;;0.40;0.20;;;;;;;18.22;72.06;99203.44;5279683;27;20570;-48
2024/04/09 04:06:08;;;;;;;0.40;0.20;;;;;;;18.39;70.78;99199.47;5279952;27;20492;-49
2024/04/09 04:08:39;;;;;;;0.40;0.20;;;;;;;18.60;69.86;99198.63;5279898;27;21064;-49
2024/04/09 04:11:09;;;;;;;0.40;0.20;;;;;;;18.43;69.71;99207.19;5279840;27;20473;-49
2024/04/09 04:13:37;;;;;;;0.40;0.20;;;;;;;18.60;68.27;99190.56;5279453;27;20596;-49
2024/04/09 04:16:12;;;;;;;0.40;0.20;;;;;;;18.73;66.87;99197.69;5279857;27;20472;-49
2024/04/09 04:18:46;;;;;;;0.40;0.20;;;;;;;18.80;64.89;99207.84;5270394;27;21063;-50
2024/04/09 04:21:21;;;;;;;0.40;0.20;;;;;;;18.91;64.66;99206.97;5268700;27;20591;-50
2024/04/09 04:23:54;;;;;;;0.40;0.20;;;;;;;18.80;64.58;99201.63;5259499;27;20483;-48
2024/04/09 04:26:23;;;;;;;0.40;0.20;;;;;;;18.99;64.02;99204.53;5279586;27;20561;-49
2024/04/09 04:28:51;;;;;;;0.40;0.20;;;;;;;18.86;64.10;99218.13;5279637;27;20480;-48
2024/04/09 04:31:23;;;;;;;0.40;0.20;;;;;;;18.87;64.95;99219.84;5279521;27;20484;-49
2024/04/09 04:33:50;;;;;;;0.40;0.20;;;;;;;18.81;64.89;99231.13;5279253;27;20497;-48
2024/04/09 04:36:18;;;;;;;0.40;0.20;;;;;;;18.68;65.67;99241.13;5279503;27;21032;-49
2024/04/09 04:38:46;;;;;;;0.40;0.20;;;;;;;18.78;65.29;99243.97;5279231;27;20480;-48
2024/04/09 04:41:13;;;;;;;0.40;0.20;;;;;;;18.77;65.57;99244.91;5271452;27;20482;-50
2024/04/09 04:43:40;;;;;;;0.40;0.20;;;;;;;18.71;65.77;99248.97;5264023;27;20477;-49
2024/04/09 04:46:07;;;;;;;0.40;0.20;;;;;;;18.76;66.04;99245.91;5279145;27;20811;-48
2024/04/09 04:48:35;;;;;;;0.40;0.20;;;;;;;18.78;66.16;99252.91;5279075;27;20484;-49
2024/04/09 04:51:02;;;;;;;0.40;0.20;;;;;;;18.76;66.53;99243.22;5278899;27;20587;-48
2024/04/09 04:53:28;;;;;;;0.40;0.20;;;;;;;18.56;67.11;99251.00;5277209;27;20532;-48
2024/04/09 04:55:55;;;;;;;0.40;0.20;;;;;;;18.53;67.82;99264.69;5278845;27;20488;-49
2024/04/09 04:58:22;;;;;;;0.40;0.20;;;;;;;18.50;67.64;99273.03;5278924;27;20533;-50
2024/04/09 05:00:52;;;;;;;4.73;3.70;;;;;;;18.37;68.38;99277.63;5278888;27;20525;-48
2024/04/09 05:03:19;;;;;;;0.40;0.20;;;;;;;18.39;68.85;99291.81;5278700;27;20469;-49
2024/04/09 05:05:47;;;;;;;0.40;0.20;;;;;;;18.36;68.71;99283.97;5278510;27;20568;-48
2024/04/09 05:08:14;;;;;;;0.40;0.20;;;;;;;18.34;68.93;99294.84;5279239;27;20558;-48
2024/04/09 05:10:40;;;;;;;0.40;0.20;;;;;;;18.29;69.39;99296.19;5300159;26;20485;-49
2024/04/09 05:13:07;;;;;;;0.40;0.20;;;;;;;18.25;70.41;99297.41;5277679;27;20480;-49
2024/04/09 05:15:34;;;;;;;0.40;0.20;;;;;;;18.18;71.42;99310.44;5278838;27;20481;-49
2024/04/09 05:18:01;;;;;;;0.40;0.20;;;;;;;18.20;71.57;99324.63;5276615;27;20830;-48
2024/04/09 05:20:29;;;;;;;0.40;0.20;;;;;;;18.20;71.46;99340.78;5258983;27;20536;-50
2024/04/09 05:22:57;;;;;;;0.40;0.20;;;;;;;18.28;71.34;99337.50;5278330;27;21095;-48
2024/04/09 05:25:27;;;;;;;0.40;0.20;;;;;;;18.28;71.78;99338.38;5278644;27;20543;-48
2024/04/09 05:27:54;;;;;;;0.40;0.20;;;;;;;18.24;72.31;99358.44;5278488;27;20492;-48
2024/04/09 05:30:21;;;;;;;0.40;0.20;;;;;;;18.34;72.29;99366.63;5278528;27;20537;-49
2024/04/09 05:32:48;;;;;;;0.40;0.20;;;;;;;18.31;72.43;99369.56;5278368;27;20484;-48
2024/04/09 05:35:14;;;;;;;0.40;0.20;;;;;;;18.32;72.21;99379.34;5278301;27;20541;-49
2024/04/09 05:37:45;;;;;;;0.40;0.20;;;;;;;18.47;72.29;99382.72;5278380;27;20548;-48
2024/04/09 05:40:11;;;;;;;0.40;0.20;;;;;;;18.34;72.21;99402.47;5278622;27;20476;-48
2024/04/09 05:42:39;;;;;;;0.40;0.20;;;;;;;18.43;72.11;99397.38;5271699;27;20534;-48
2024/04/09 05:45:08;;;;;;;0.40;0.20;;;;;;;18.19;73.53;99405.44;5263050;27;20481;-49
2024/04/09 05:47:35;;;;;;;0.40;0.20;;;;;;;18.17;74.36;99416.34;5278442;27;20476;-48
2024/04/09 05:50:05;;;;;;;0.40;0.20;;;;;;;18.16;75.34;99420.00;5278324;27;20476;-48
2024/04/09 05:52:32;;;;;;;0.40;0.23;;;;;;;18.14;75.87;99423.78;5277906;27;20476;-48
2024/04/09 05:54:59;;;;;;;0.40;0.20;;;;;;;18.37;75.61;99428.31;5278267;27;21025;-48
2024/04/09 05:57:26;;;;;;;0.40;0.20;;;;;;;18.59;75.43;99423.03;5269893;27;20474;-48
2024/04/09 05:59:54;;;;;;;0.40;0.20;;;;;;;18.29;76.84;99431.56;5264571;27;20481;-49
2024/04/09 06:02:21;;;;;;;0.40;0.20;;;;;;;18.50;76.20;99417.47;5278066;27;20476;-49
2024/04/09 06:04:48;;;;;;;0.40;0.20;;;;;;;18.11;78.35;99427.56;5278290;27;20589;-48
2024/04/09 06:07:14;;;;;;;0.40;0.20;;;;;;;17.90;80.61;99431.81;5278054;27;20489;-48
2024/04/09 06:09:41;;;;;;;0.40;0.20;;;;;;;17.97;80.28;99443.84;5278005;27;20863;-48
2024/04/09 06:12:08;;;;;;;0.40;0.20;;;;;;;18.14;80.36;99443.47;5278073;27;20481;-48
2024/04/09 06:14:35;;;;;;;0.40;0.20;;;;;;;18.01;80.72;99454.25;5278127;27;20481;-48
2024/04/09 06:17:01;;;;;;;0.40;0.20;;;;;;;18.17;80.16;99463.91;5278016;27;20465;-48
2024/04/09 06:19:28;;;;;;;0.40;0.20;;;;;;;17.86;79.74;99481.41;5277919;27;20533;-48
2024/04/09 06:21:55;;;;;;;0.40;0.20;;;;;;;17.88;79.09;99477.63;5278119;27;20480;-48
2024/04/09 06:24:21;;;;;;;0.40;0.20;;;;;;;17.70;79.85;99473.56;5277974;27;20484;-48
2024/04/09 06:26:48;;;;;;;0.40;0.20;;;;;;;17.89;80.00;99468.59;5277894;27;20473;-48
2024/04/09 06:29:16;;;;;;;0.40;0.20;;;;;;;17.62;80.94;99455.25;5277829;27;21016;-48
2024/04/09 06:31:43;;;;;;;0.40;0.20;;;;;;;17.81;82.02;99462.88;5255345;27;20518;-48
2024/04/09 06:34:10;;;;;;;0.40;0.20;;;;;;;17.60;84.65;99467.09;5277595;27;20501;-50
2024/04/09 06:36:37;;;;;;;0.40;0.20;;;;;;;17.52;82.37;99464.06;5277951;27;20609;-48
2024/04/09 06:39:05;;;;;;;0.40;0.20;;;;;;;17.45;79.88;99461.81;5277509;27;20941;-50
2024/04/09 06:41:32;;;;;;;0.40;0.20;;;;;;;17.47;81.35;99467.09;5277887;27;20481;-49
2024/04/09 06:43:58;;;;;;;0.40;0.20;;;;;;;17.51;80.22;99479.34;5277385;27;20484;-49
2024/04/09 06:46:25;;;;;;;0.40;0.20;;;;;;;17.60;80.36;99492.13;5277746;27;20859;-49
2024/04/09 06:48:52;;;;;;;0.40;0.20;;;;;;;17.45;77.67;99509.34;5277547;27;20481;-49
2024/04/09 06:51:19;;;;;;;0.40;0.20;;;;;;;17.58;75.63;99514.72;5277545;27;21073;-49
2024/04/09 06:53:46;;;;;;;0.40;0.20;;;;;;;17.96;73.96;99531.72;5277600;27;20549;-50
2024/04/09 06:56:12;;;;;;;0.40;0.20;;;;;;;17.59;74.59;99532.56;5277676;27;20480;-51
2024/04/09 06:58:39;;;;;;;0.40;0.20;;;;;;;17.44;73.65;99535.34;5277357;27;20524;-51
2024/04/09 07:01:05;;;;;;;0.40;0.20;;;;;;;17.41;73.46;99540.06;5277410;27;20531;-50
2024/04/09 07:03:32;;;;;;;0.40;0.20;;;;;;;17.40;72.86;99549.94;5277052;27;20476;-50
2024/04/09 07:05:59;;;;;;;0.40;0.20;;;;;;;17.63;71.60;99566.31;5276782;27;20554;-49
2024/04/09 07:08:26;;;;;;;0.40;0.20;;;;;;;17.24;73.90;99570.75;5277639;27;20492;-50
2024/04/09 07:10:55;;;;;;;0.40;0.20;;;;;;;17.55;73.64;99585.66;5275909;27;21143;-50
2024/04/09 07:13:21;;;;;;;0.40;0.20;;;;;;;17.70;73.32;99579.25;5277263;27;20554;-51
2024/04/09 07:15:53;;;;;;;0.40;0.20;;;;;;;16.83;77.36;99581.56;5277479;27;20473;-50
2024/04/09 07:18:20;;;;;;;0.40;0.20;;;;;;;16.99;76.81;99601.06;5276971;27;21021;-50
2024/04/09 07:20:47;;;;;;;0.40;0.20;;;;;;;16.69;72.29;99608.44;5277059;27;20529;-50
2024/04/09 07:23:13;;;;;;;0.40;0.20;;;;;;;16.42;70.99;99614.59;5277105;27;20529;-50
2024/04/09 07:25:40;;;;;;;0.40;0.20;;;;;;;16.12;66.30;99641.50;5276809;27;20881;-50
2024/04/09 07:28:06;;;;;;;0.40;0.20;;;;;;;15.83;63.80;99642.44;5277610;27;20476;-50
2024/04/09 07:30:36;;;;;;;0.40;0.20;;;;;;;15.72;64.35;99644.88;5277417;27;20898;-50
2024/04/09 07:33:04;;;;;;;0.40;0.20;;;;;;;15.55;64.15;99662.81;5276518;27;20484;-50
2024/04/09 07:35:31;;;;;;;0.40;0.20;;;;;;;15.41;64.60;99679.69;5276782;27;20488;-50
2024/04/09 07:37:57;;;;;;;0.40;0.20;;;;;;;15.50;65.74;99680.97;5276425;27;20591;-50
2024/04/09 07:40:24;;;;;;;0.40;0.20;;;;;;;15.52;66.39;99702.31;5276823;27;20480;-50
2024/04/09 07:42:50;;;;;;;0.40;0.20;;;;;;;15.15;66.80;99708.91;5276545;27;20533;-50
2024/04/09 07:45:17;;;;;;;0.40;0.20;;;;;;;15.23;66.80;99704.00;5276806;27;20521;-50
2024/04/09 07:47:44;;;;;;;0.40;0.20;;;;;;;15.36;67.86;99697.00;5276511;27;20559;-50
2024/04/09 07:50:11;;;;;;;0.40;0.20;;;;;;;15.39;67.89;99694.13;5276795;27;20492;-50
2024/04/09 07:52:39;;;;;;;0.40;0.20;;;;;;;15.61;67.22;99693.75;5276295;27;20480;-50
2024/04/09 07:55:08;;;;;;;0.40;0.20;;;;;;;15.77;67.08;99699.09;5276437;27;20552;-50
2024/04/09 07:57:35;;;;;;;0.40;0.20;;;;;;;15.81;67.46;99714.88;5276416;27;20480;-50
2024/04/09 08:00:06;;;;;;;0.40;0.20;;;;;;;15.81;67.54;99727.44;5276423;27;20488;-50
2024/04/09 08:02:33;;;;;;;0.40;0.20;;;;;;;15.98;66.74;99719.25;5276398;27;20596;-50
2024/04/09 08:04:59;;;;;;;0.40;0.20;;;;;;;15.85;68.39;99718.25;5276324;27;20821;-50
2024/04/09 08:07:26;;;;;;;0.40;0.20;;;;;;;15.95;68.62;99738.19;5276159;27;20524;-50
2024/04/09 08:09:53;;;;;;;0.40;0.20;;;;;;;16.34;67.50;99752.84;5266049;27;20485;-49
2024/04/09 08:12:20;;;;;;;0.40;0.20;;;;;;;16.34;66.78;99768.94;5276316;27;20597;-50
2024/04/09 08:14:47;;;;;;;0.40;0.20;;;;;;;16.55;64.56;99771.16;5275934;27;20546;-49
2024/04/09 08:17:14;;;;;;;0.40;0.20;;;;;;;16.21;64.01;99780.41;5279060;27;20528;-50
2024/04/09 08:19:41;;;;;;;0.40;0.20;;;;;;;16.14;66.62;99797.81;5279201;27;20532;-50
2024/04/09 08:22:07;;;;;;;0.40;0.20;;;;;;;16.56;67.20;99801.53;5279833;27;20529;-51
2024/04/09 08:24:34;;;;;;;0.40;0.20;;;;;;;16.50;63.32;99816.19;5279400;27;20604;-50
2024/04/09 08:27:01;;;;;;;0.40;0.20;;;;;;;16.09;62.38;99829.41;5279647;27;20480;-50
2024/04/09 08:29:31;;;;;;;0.40;0.20;;;;;;;16.02;61.13;99819.09;5279565;27;20654;-50
2024/04/09 08:31:58;;;;;;;0.40;0.20;;;;;;;15.93;59.23;99841.97;5279765;27;20488;-50
2024/04/09 08:34:24;;;;;;;0.40;0.20;;;;;;;15.86;58.22;99852.16;5279121;27;20552;-50
2024/04/09 08:36:51;;;;;;;0.40;0.20;;;;;;;15.89;57.91;99851.97;5279639;27;20485;-50
2024/04/09 08:39:18;;;;;;;0.40;0.20;;;;;;;15.74;58.40;99852.00;5279154;27;20544;-50
2024/04/09 08:41:45;;;;;;;0.40;0.20;;;;;;;15.81;59.21;99848.03;5279470;27;20496;-50
2024/04/09 08:44:13;;;;;;;0.40;0.20;;;;;;;15.72;60.63;99840.50;5279249;27;21020;-50
2024/04/09 08:46:40;;;;;;;0.40;0.20;;;;;;;15.74;60.86;99830.56;5279308;27;20484;-50
2024/04/09 08:49:09;;;;;;;0.40;0.20;;;;;;;15.38;63.00;99848.59;5279151;27;20541;-50
2024/04/09 08:51:37;;;;;;;0.40;0.20;;;;;;;15.42;63.25;99854.66;5279156;27;20548;-50
2024/04/09 08:54:04;;;;;;;0.40;0.20;;;;;;;15.61;61.83;99843.78;5278870;27;20906;-50
2024/04/09 08:56:32;;;;;;;0.40;0.20;;;;;;;15.50;61.93;99848.88;5279322;27;20591;-50
2024/04/09 08:59:04;;;;;;;0.40;0.20;;;;;;;15.50;62.51;99849.75;5279106;27;21069;-50
2024/04/09 09:01:30;;;;;;;0.40;0.20;;;;;;;15.32;66.50;99854.28;5279167;27;20525;-49
2024/04/09 09:03:57;;;;;;;0.40;0.20;;;;;;;15.39;68.05;99846.78;5278874;27;20489;-50
2024/04/09 09:06:24;;;;;;;0.40;0.20;;;;;;;15.34;71.99;99854.19;5279100;27;20500;-50
2024/04/09 09:08:51;;;;;;;0.40;0.20;;;;;;;15.32;72.33;99859.63;5278787;27;20496;-50
2024/04/09 09:11:21;;;;;;;0.40;0.20;;;;;;;15.44;69.56;99865.28;5278755;27;20488;-50
2024/04/09 09:13:48;;;;;;;0.40;0.20;;;;;;;15.19;70.92;99871.97;5278417;27;20485;-50
2024/04/09 09:16:14;;;;;;;0.40;0.20;;;;;;;15.31;66.76;99902.56;5278911;27;20481;-50
2024/04/09 09:18:41;;;;;;;0.40;0.20;;;;;;;15.18;66.74;99913.06;5278415;27;20556;-50
2024/04/09 09:21:08;;;;;;;0.40;0.20;;;;;;;15.18;65.58;99922.94;5278706;27;20489;-50
2024/04/09 09:23:35;;;;;;;0.40;0.20;;;;;;;15.13;60.37;99936.56;5278665;27;21074;-50
2024/04/09 09:26:05;;;;;;;0.40;0.20;;;;;;;14.51;59.93;99938.00;5278934;27;20536;-50
2024/04/09 09:28:31;;;;;;;0.40;0.20;;;;;;;14.77;59.59;99950.03;5277968;27;20480;-50
2024/04/09 09:30:58;;;;;;;0.40;0.20;;;;;;;14.67;60.42;99949.66;5278397;27;20544;-50
2024/04/09 09:33:29;;;;;;;0.40;0.20;;;;;;;14.64;59.75;99949.81;5278391;27;20548;-50
2024/04/09 09:35:56;;;;;;;0.40;0.20;;;;;;;14.78;59.94;99954.44;5278663;27;20488;-50
2024/04/09 09:38:24;;;;;;;0.40;0.20;;;;;;;14.84;59.04;99938.09;5278459;27;20552;-50
2024/04/09 09:40:52;;;;;;;0.40;0.20;;;;;;;14.79;59.80;99943.66;5278183;27;20566;-50
2024/04/09 09:43:20;;;;;;;0.40;0.20;;;;;;;14.85;59.96;99952.34;5278411;27;21034;-50
2024/04/09 09:45:47;;;;;;;0.40;0.20;;;;;;;14.82;61.27;99953.38;5278399;27;20472;-50
2024/04/09 09:48:19;;;;;;;0.40;0.20;;;;;;;14.70;62.21;99944.16;5278379;27;20569;-50
2024/04/09 09:50:47;;;;;;;0.40;0.20;;;;;;;14.91;59.63;99963.56;5278371;27;20506;-50
2024/04/09 09:53:13;;;;;;;0.40;0.20;;;;;;;15.04;58.53;99955.78;5278422;27;21045;-50
2024/04/09 09:55:42;;;;;;;0.40;0.20;;;;;;;14.54;59.79;99955.72;5277777;27;21042;-50
2024/04/09 09:58:13;;;;;;;0.40;0.20;;;;;;;14.78;58.94;99967.81;5278370;27;20541;-50
2024/04/09 10:00:40;;;;;;;0.40;0.20;;;;;;;14.59;60.22;99978.59;5278017;27;20480;-50
2024/04/09 10:03:07;;;;;;;0.40;0.20;;;;;;;14.69;60.89;99976.34;5278291;27;21074;-50
2024/04/09 10:05:35;;;;;;;0.40;0.20;;;;;;;14.81;61.76;99979.25;5277948;27;20592;-50
2024/04/09 10:08:13;;;;;;;0.40;0.20;;;;;;;14.98;60.56;99977.53;5278095;27;20484;-50
2024/04/09 10:10:42;;;;;;;0.40;0.20;;;;;;;14.87;61.14;99987.91;5278025;27;20544;-50
2024/04/09 10:13:09;;;;;;;0.40;0.20;;;;;;;14.65;62.31;99988.97;5277882;27;20477;-49
2024/04/09 10:15:43;;;;;;;0.40;0.20;;;;;;;14.50;63.47;100005.81;5277879;27;20477;-50
2024/04/09 10:18:11;;;;;;;0.40;0.20;;;;;;;14.38;64.25;100015.25;5277682;27;20480;-50
2024/04/09 10:20:37;;;;;;;0.40;0.20;;;;;;;14.47;64.80;100014.84;5277700;27;20599;-50
2024/04/09 10:23:06;;;;;;;0.40;0.20;;;;;;;14.19;66.19;100006.41;5277876;27;20532;-50
2024/04/09 10:25:44;;;;;;;0.40;0.20;;;;;;;14.34;66.56;100010.13;5278026;27;20565;-50
2024/04/09 10:28:13;;;;;;;0.40;0.20;;;;;;;14.42;66.57;100019.53;5277868;27;20480;-50
2024/04/09 10:30:45;;;;;;;0.40;0.20;;;;;;;14.29;67.64;100044.25;5277888;27;20532;-50
2024/04/09 10:33:12;;;;;;;0.40;0.20;;;;;;;14.34;69.12;100043.09;5277576;27;20489;-50
2024/04/09 10:35:46;;;;;;;0.40;0.20;;;;;;;13.94;72.71;100041.44;5277722;27;20565;-50
2024/04/09 10:38:13;;;;;;;0.40;0.20;;;;;;;14.11;69.27;100051.31;5255451;27;20480;-50
2024/04/09 10:40:41;;;;;;;0.40;0.20;;;;;;;13.94;70.78;100061.00;5276137;27;20548;-51
2024/04/09 10:43:10;;;;;;;0.40;0.20;;;;;;;14.14;70.28;100056.56;5277614;27;20537;-51
2024/04/09 10:45:37;;;;;;;0.40;0.20;;;;;;;14.10;69.27;100060.28;5277546;27;20488;-51
2024/04/09 10:48:22;;;;;;;0.40;0.20;;;;;;;14.24;67.20;100065.84;5277585;27;20484;-51
2024/04/09 10:50:50;;;;;;;0.40;0.20;;;;;;;14.08;68.04;100063.03;5277449;27;20477;-51
2024/04/09 10:53:17;;;;;;;0.40;0.20;;;;;;;14.04;70.02;100066.78;5277448;27;20473;-51
2024/04/09 10:55:47;;;;;;;0.40;0.20;;;;;;;14.07;69.60;100053.28;5277321;27;20485;-51
2024/04/09 10:58:15;;;;;;;0.40;0.20;;;;;;;13.81;70.44;100041.13;5277466;27;20511;-51
2024/04/09 11:00:43;;;;;;;0.40;0.20;;;;;;;13.97;70.15;100043.09;5276831;27;21094;-51
2024/04/09 11:03:10;;;;;;;0.30;0.20;;;;;;;13.76;72.06;100050.31;5277075;27;20542;-51
2024/04/09 11:05:39;;;;;;;0.40;0.20;;;;;;;13.67;72.93;100046.22;5277151;27;20480;-50
2024/04/09 11:08:07;;;;;;;0.40;0.20;;;;;;;14.02;72.78;100049.97;5276964;27;20477;-51
2024/04/09 11:10:34;;;;;;;0.40;0.40;;;;;;;13.84;72.51;100051.69;5277022;27;21025;-51
2024/04/09 11:13:01;;;;;;;0.30;0.20;;;;;;;13.74;73.43;100054.84;5277419;27;20620;-51
2024/04/09 11:15:28;;;;;;;0.40;0.20;;;;;;;13.93;72.67;100053.06;5277067;27;20496;-51
2024/04/09 11:17:54;;;;;;;0.30;0.20;;;;;;;13.79;75.72;100071.53;5277157;27;21033;-51
2024/04/09 11:20:22;;;;;;;0.37;0.20;;;;;;;13.69;75.05;100076.41;5276869;27;20492;-51
2024/04/09 11:22:51;;;;;;;0.37;0.20;;;;;;;13.68;76.41;100081.81;5277033;27;20472;-51
2024/04/09 11:25:24;;;;;;;0.40;0.20;;;;;;;13.68;79.81;100074.66;5255140;27;20570;-51
2024/04/09 11:27:52;;;;;;;0.30;0.20;;;;;;;13.68;80.52;100071.13;5276989;27;20653;-51
2024/04/09 11:30:24;;;;;;;0.30;0.20;;;;;;;13.61;80.73;100086.59;5276715;27;20842;-51
2024/04/09 11:32:52;;;;;;;0.40;0.20;;;;;;;13.69;80.50;100091.56;5276551;27;20533;-50
2024/04/09 11:35:21;;;;;;;0.30;0.20;;;;;;;13.66;80.00;100083.69;5277050;27;20569;-51
2024/04/09 11:37:58;;;;;;;0.40;0.20;;;;;;;13.83;79.78;100089.13;5276635;27;20565;-51
2024/04/09 11:40:26;;;;;;;0.30;0.20;;;;;;;14.14;78.59;100094.84;5276929;27;20472;-51
2024/04/09 11:42:54;;;;;;;0.40;0.20;;;;;;;13.98;78.31;100095.59;5277766;27;20480;-51
2024/04/09 11:45:21;;;;;;;0.30;0.20;;;;;;;13.95;78.12;100091.25;5276962;27;20488;-50
2024/04/09 11:47:49;;;;;;;0.40;0.20;;;;;;;13.90;77.48;100101.31;5276410;27;20914;-50
2024/04/09 11:50:16;;;;;;;0.30;0.20;;;;;;;13.91;77.76;100103.03;5276474;27;20481;-50
2024/04/09 11:52:43;;;;;;;0.40;0.20;;;;;;;14.13;78.18;100090.44;5279611;27;20484;-49
2024/04/09 11:55:10;;;;;;;0.40;0.20;;;;;;;14.33;78.28;100088.63;5279695;27;20533;-50
2024/04/09 11:57:43;;;;;;;0.30;0.20;;;;;;;14.29;75.79;100082.56;5279880;27;20596;-50
2024/04/09 12:00:14;;;;;;;0.30;0.20;;;;;;;14.15;76.75;100083.22;5279584;27;20536;-50
2024/04/09 12:02:44;;;;;;;0.40;0.20;;;;;;;13.88;74.88;100085.34;5279588;27;20580;-50
2024/04/09 12:05:12;;;;;;;0.30;0.20;;;;;;;13.84;75.14;100097.13;5279543;27;20480;-50
2024/04/09 12:07:40;;;;;;;0.30;0.20;;;;;;;13.98;76.13;100107.19;5279521;27;20603;-51
2024/04/09 12:10:07;;;;;;;0.30;0.20;;;;;;;14.11;76.39;100096.75;5279691;27;21069;-50
2024/04/09 12:12:34;;;;;;;0.40;0.20;;;;;;;13.73;74.78;100101.19;5279648;27;20533;-50
2024/04/09 12:15:03;;;;;;;0.30;0.20;;;;;;;14.01;73.34;100111.50;5279274;27;20839;-50